createdAt,value
2018-10-05T00:01:10.128Z,1018.83
2018-10-05T00:02:10.137Z,1018.83
2018-10-05T00:04:04.600Z,1018.87
2018-10-05T00:05:04.574Z,1018.85
2018-10-05T00:07:00.032Z,1018.88
2018-10-05T00:07:59.032Z,1018.86
2018-10-05T00:09:53.448Z,1018.88
2018-10-05T00:10:53.445Z,1018.89
2018-10-05T00:12:49.510Z,1018.89
2018-10-05T00:13:49.396Z,1018.87
2018-10-05T00:15:45.329Z,1018.82
2018-10-05T00:16:45.834Z,1018.81
2018-10-05T00:18:40.271Z,1018.79
2018-10-05T00:19:40.271Z,1018.81
2018-10-05T00:21:36.706Z,1018.77
2018-10-05T00:22:35.655Z,1018.76
2018-10-05T00:24:30.605Z,1018.72
2018-10-05T00:25:30.605Z,1018.73
2018-10-05T00:27:26.548Z,1018.72
2018-10-05T00:28:26.026Z,1018.68
2018-10-05T00:30:23.467Z,1018.62
2018-10-05T00:31:20.454Z,1018.67
2018-10-05T00:33:15.403Z,1018.65
2018-10-05T00:34:14.889Z,1018.64
2018-10-05T00:36:09.309Z,1018.63
2018-10-05T00:37:09.316Z,1018.66
2018-10-05T00:39:03.762Z,1018.67
2018-10-05T00:40:03.766Z,1018.64
2018-10-05T00:42:00.714Z,1018.63
2018-10-05T00:42:59.662Z,1018.60
2018-10-05T00:44:54.109Z,1018.53
2018-10-05T00:45:54.074Z,1018.54
2018-10-05T00:47:48.520Z,1018.56
2018-10-05T00:48:48.531Z,1018.54
2018-10-05T00:50:42.992Z,1018.53
2018-10-05T00:51:42.968Z,1018.50
2018-10-05T00:53:36.474Z,1018.49
2018-10-05T00:54:36.386Z,1018.44
2018-10-05T00:56:32.855Z,1018.41
2018-10-05T00:57:32.317Z,1018.46
2018-10-05T00:59:27.276Z,1018.43
2018-10-05T01:00:26.765Z,1018.40
2018-10-05T01:02:20.701Z,1018.36
2018-10-05T01:03:20.175Z,1018.39
2018-10-05T01:05:14.629Z,1018.38
2018-10-05T01:06:14.605Z,1018.35
2018-10-05T01:08:10.064Z,1018.35
2018-10-05T01:09:09.039Z,1018.35
2018-10-05T01:11:06.979Z,1018.33
2018-10-05T01:12:04.984Z,1018.34
2018-10-05T01:13:59.392Z,1018.31
2018-10-05T01:14:59.394Z,1018.31
2018-10-05T01:16:53.826Z,1018.30
2018-10-05T01:17:53.816Z,1018.32
2018-10-05T01:19:51.266Z,1018.29
2018-10-05T01:20:49.749Z,1018.30
2018-10-05T01:22:44.691Z,1018.26
2018-10-05T01:23:44.164Z,1018.24
2018-10-05T01:25:41.612Z,1018.21
2018-10-05T01:26:40.091Z,1018.21
2018-10-05T01:28:34.552Z,1018.23
2018-10-05T01:29:34.520Z,1018.20
2018-10-05T01:31:30.976Z,1018.15
2018-10-05T01:32:30.425Z,1018.12
2018-10-05T01:34:23.895Z,1018.07
2018-10-05T01:35:23.850Z,1018.10
2018-10-05T01:37:18.284Z,1018.04
2018-10-05T01:38:18.275Z,1018.02
2018-10-05T01:40:12.699Z,1018.04
2018-10-05T01:41:12.716Z,1018.04
2018-10-05T01:43:08.682Z,1018.04
2018-10-05T01:44:08.634Z,1017.99
2018-10-05T01:46:03.596Z,1018.00
2018-10-05T01:47:03.056Z,1017.98
2018-10-05T01:48:59.500Z,1017.96
2018-10-05T01:49:58.969Z,1017.96
2018-10-05T01:51:53.440Z,1017.96
2018-10-05T01:52:53.395Z,1017.94
2018-10-05T01:54:49.842Z,1017.95
2018-10-05T01:55:49.356Z,1017.96
2018-10-05T01:57:44.292Z,1017.94
2018-10-05T01:58:43.769Z,1017.93
2018-10-05T02:00:38.210Z,1017.95
2018-10-05T02:01:38.226Z,1017.95
2018-10-05T02:03:32.656Z,1017.89
2018-10-05T02:04:32.668Z,1017.91
2018-10-05T02:06:27.089Z,1017.89
2018-10-05T02:07:27.075Z,1017.86
2018-10-05T02:09:21.551Z,1017.88
2018-10-05T02:10:21.532Z,1017.84
2018-10-05T02:12:16.481Z,1017.87
2018-10-05T02:13:15.942Z,1017.90
2018-10-05T02:15:10.360Z,1017.85
2018-10-05T02:16:10.359Z,1017.89
2018-10-05T02:18:07.331Z,1017.84
2018-10-05T02:19:06.322Z,1017.86
2018-10-05T02:21:01.255Z,1017.82
2018-10-05T02:22:00.735Z,1017.80
2018-10-05T02:23:55.180Z,1017.79
2018-10-05T02:24:55.690Z,1017.77
2018-10-05T02:26:49.597Z,1017.77
2018-10-05T02:27:49.609Z,1017.78
2018-10-05T02:29:44.078Z,1017.73
2018-10-05T02:30:45.557Z,1017.71
2018-10-05T02:32:38.979Z,1017.70
2018-10-05T02:33:38.467Z,1017.67
2018-10-05T02:35:33.409Z,1017.71
2018-10-05T02:36:33.413Z,1017.67
2018-10-05T02:38:27.357Z,1017.67
2018-10-05T02:39:27.346Z,1017.67
2018-10-05T02:41:20.765Z,1017.63
2018-10-05T02:42:20.769Z,1017.61
2018-10-05T02:44:15.722Z,1017.55
2018-10-05T02:45:16.726Z,1017.58
2018-10-05T02:47:10.173Z,1017.60
2018-10-05T02:48:09.634Z,1017.57
2018-10-05T02:50:04.595Z,1017.54
2018-10-05T02:51:04.071Z,1017.52
2018-10-05T02:52:58.528Z,1017.51
2018-10-05T02:53:58.521Z,1017.50
2018-10-05T02:55:53.477Z,1017.48
2018-10-05T02:56:52.960Z,1017.48
2018-10-05T02:58:47.427Z,1017.45
2018-10-05T02:59:47.378Z,1017.41
2018-10-05T03:01:41.773Z,1017.41
2018-10-05T03:02:41.775Z,1017.39
2018-10-05T03:04:38.232Z,1017.38
2018-10-05T03:05:37.698Z,1017.37
2018-10-05T03:07:32.136Z,1017.37
2018-10-05T03:08:32.141Z,1017.36
2018-10-05T03:10:26.581Z,1017.38
2018-10-05T03:11:26.566Z,1017.33
2018-10-05T03:13:21.000Z,1017.36
2018-10-05T03:14:20.979Z,1017.35
2018-10-05T03:16:15.404Z,1017.30
2018-10-05T03:17:15.948Z,1017.31
2018-10-05T03:19:09.866Z,1017.30
2018-10-05T03:20:09.855Z,1017.27
2018-10-05T03:22:04.233Z,1017.25
2018-10-05T03:23:04.244Z,1017.22
2018-10-05T03:24:58.674Z,1017.28
2018-10-05T03:25:58.675Z,1017.29
2018-10-05T03:27:52.149Z,1017.28
2018-10-05T03:28:52.099Z,1017.28
2018-10-05T03:30:46.558Z,1017.24
2018-10-05T03:31:47.046Z,1017.28
2018-10-05T03:33:41.519Z,1017.27
2018-10-05T03:34:40.974Z,1017.23
2018-10-05T03:36:36.941Z,1017.21
2018-10-05T03:37:36.902Z,1017.22
2018-10-05T03:39:31.346Z,1017.18
2018-10-05T03:40:31.324Z,1017.17
2018-10-05T03:42:27.303Z,1017.15
2018-10-05T03:43:27.276Z,1017.21
2018-10-05T03:45:21.737Z,1017.20
2018-10-05T03:46:22.242Z,1017.19
2018-10-05T03:48:17.065Z,1017.18
2018-10-05T03:49:16.120Z,1017.16
2018-10-05T03:51:12.001Z,1017.11
2018-10-05T03:52:10.540Z,1017.11
2018-10-05T03:54:06.540Z,1017.10
2018-10-05T03:55:06.499Z,1017.06
2018-10-05T03:57:02.448Z,1016.97
2018-10-05T03:58:02.930Z,1017.02
2018-10-05T03:59:57.865Z,1016.99
2018-10-05T04:00:56.859Z,1017.02
2018-10-05T04:02:51.305Z,1016.98
2018-10-05T04:03:51.272Z,1016.96
2018-10-05T04:05:47.207Z,1016.97
2018-10-05T04:06:47.197Z,1016.98
2018-10-05T04:08:43.134Z,1016.99
2018-10-05T04:09:43.148Z,1016.98
2018-10-05T04:11:37.514Z,1016.93
2018-10-05T04:12:37.515Z,1016.98
2018-10-05T04:14:31.999Z,1016.87
2018-10-05T04:15:31.941Z,1016.86
2018-10-05T04:17:27.380Z,1016.80
2018-10-05T04:18:27.934Z,1016.79
2018-10-05T04:20:19.795Z,1016.77
2018-10-05T04:21:19.815Z,1016.80
2018-10-05T04:23:14.242Z,1016.75
2018-10-05T04:24:14.248Z,1016.74
2018-10-05T04:26:10.705Z,1016.75
2018-10-05T04:27:10.284Z,1016.74
2018-10-05T04:29:05.172Z,1016.72
2018-10-05T04:30:04.672Z,1016.78
2018-10-05T04:31:58.650Z,1016.75
2018-10-05T04:32:58.059Z,1016.69
2018-10-05T04:34:53.984Z,1016.73
2018-10-05T04:35:53.996Z,1016.74
2018-10-05T04:37:51.373Z,1016.75
2018-10-05T04:38:49.936Z,1016.68
2018-10-05T04:40:47.404Z,1016.73
2018-10-05T04:41:45.891Z,1016.68
2018-10-05T04:43:41.847Z,1016.63
2018-10-05T04:44:41.803Z,1016.59
2018-10-05T04:46:36.257Z,1016.54
2018-10-05T04:47:36.238Z,1016.61
2018-10-05T04:49:37.234Z,1016.56
2018-10-05T04:50:33.114Z,1016.56
2018-10-05T04:52:26.590Z,1016.61
2018-10-05T04:53:26.582Z,1016.58
2018-10-05T04:55:20.996Z,1016.51
2018-10-05T04:56:21.001Z,1016.55
2018-10-05T04:58:15.453Z,1016.52
2018-10-05T04:59:15.425Z,1016.49
2018-10-05T05:01:09.368Z,1016.52
2018-10-05T05:02:08.855Z,1016.52
2018-10-05T05:04:04.819Z,1016.48
2018-10-05T05:05:04.768Z,1016.49
2018-10-05T05:07:00.154Z,1016.49
2018-10-05T05:07:59.250Z,1016.47
2018-10-05T05:09:53.694Z,1016.48
2018-10-05T05:10:54.162Z,1016.48
2018-10-05T05:12:50.135Z,1016.46
2018-10-05T05:13:49.646Z,1016.48
2018-10-05T05:15:46.101Z,1016.50
2018-10-05T05:16:45.611Z,1016.51
2018-10-05T05:18:40.009Z,1016.47
2018-10-05T05:19:40.586Z,1016.46
2018-10-05T05:21:34.949Z,1016.42
2018-10-05T05:22:33.405Z,1016.43
2018-10-05T05:24:28.379Z,1016.37
2018-10-05T05:25:29.374Z,1016.41
2018-10-05T05:27:22.276Z,1016.39
2018-10-05T05:28:22.797Z,1016.38
2018-10-05T05:30:21.220Z,1016.42
2018-10-05T05:31:20.358Z,1016.39
2018-10-05T05:33:14.783Z,1016.41
2018-10-05T05:34:14.808Z,1016.47
2018-10-05T05:36:10.746Z,1016.44
2018-10-05T05:37:10.740Z,1016.45
2018-10-05T05:39:08.674Z,1016.47
2018-10-05T05:40:06.718Z,1016.44
2018-10-05T05:42:01.085Z,1016.45
2018-10-05T05:43:01.085Z,1016.42
2018-10-05T05:44:56.552Z,1016.47
2018-10-05T05:45:56.365Z,1016.45
2018-10-05T05:47:50.841Z,1016.43
2018-10-05T05:48:50.805Z,1016.41
2018-10-05T05:50:47.269Z,1016.41
2018-10-05T05:51:46.727Z,1016.42
2018-10-05T05:53:41.172Z,1016.44
2018-10-05T05:54:41.152Z,1016.43
2018-10-05T05:56:36.110Z,1016.44
2018-10-05T05:57:35.588Z,1016.45
2018-10-05T05:59:29.031Z,1016.42
2018-10-05T06:00:29.559Z,1016.46
2018-10-05T06:02:24.993Z,1016.46
2018-10-05T06:03:25.475Z,1016.46
2018-10-05T06:05:19.380Z,1016.49
2018-10-05T06:06:19.390Z,1016.52
2018-10-05T06:08:13.931Z,1016.46
2018-10-05T06:09:13.810Z,1016.44
2018-10-05T06:11:08.238Z,1016.46
2018-10-05T06:12:08.235Z,1016.45
2018-10-05T06:14:04.184Z,1016.44
2018-10-05T06:15:02.656Z,1016.43
2018-10-05T06:16:57.136Z,1016.43
2018-10-05T06:17:57.098Z,1016.48
2018-10-05T06:19:51.557Z,1016.43
2018-10-05T06:20:51.547Z,1016.41
2018-10-05T06:22:45.965Z,1016.36
2018-10-05T06:23:45.956Z,1016.38
2018-10-05T06:25:40.397Z,1016.39
2018-10-05T06:26:41.334Z,1016.38
2018-10-05T06:28:34.796Z,1016.41
2018-10-05T06:29:34.808Z,1016.36
2018-10-05T06:31:28.250Z,1016.42
2018-10-05T06:32:28.760Z,1016.37
2018-10-05T06:34:22.639Z,1016.35
2018-10-05T06:35:24.095Z,1016.39
2018-10-05T06:37:17.614Z,1016.38
2018-10-05T06:38:17.173Z,1016.40
2018-10-05T06:40:13.038Z,1016.41
2018-10-05T06:41:13.010Z,1016.44
2018-10-05T06:43:06.463Z,1016.49
2018-10-05T06:44:06.443Z,1016.46
2018-10-05T06:46:00.887Z,1016.47
2018-10-05T06:47:00.870Z,1016.46
2018-10-05T06:48:55.294Z,1016.48
2018-10-05T06:49:55.290Z,1016.54
2018-10-05T06:51:49.727Z,1016.51
2018-10-05T06:52:49.694Z,1016.56
2018-10-05T06:54:45.167Z,1016.51
2018-10-05T06:55:44.126Z,1016.50
2018-10-05T06:57:38.585Z,1016.50
2018-10-05T06:58:38.543Z,1016.53
2018-10-05T07:00:32.993Z,1016.47
2018-10-05T07:01:32.091Z,1016.47
2018-10-05T07:03:26.402Z,1016.45
2018-10-05T07:04:26.925Z,1016.44
2018-10-05T07:06:23.332Z,1016.45
2018-10-05T07:07:22.328Z,1016.44
2018-10-05T07:09:18.278Z,1016.41
2018-10-05T07:10:18.274Z,1016.40
2018-10-05T07:12:14.709Z,1016.41
2018-10-05T07:13:14.196Z,1016.41
2018-10-05T07:15:08.682Z,1016.40
2018-10-05T07:16:08.621Z,1016.42
2018-10-05T07:18:06.060Z,1016.40
2018-10-05T07:19:04.547Z,1016.40
2018-10-05T07:21:00.509Z,1016.38
2018-10-05T07:22:00.485Z,1016.37
2018-10-05T07:23:58.422Z,1016.38
2018-10-05T07:24:58.410Z,1016.40
2018-10-05T07:26:54.336Z,1016.38
2018-10-05T07:27:54.354Z,1016.38
2018-10-05T07:29:50.317Z,1016.38
2018-10-05T07:30:50.785Z,1016.38
2018-10-05T07:32:46.265Z,1016.35
2018-10-05T07:33:47.215Z,1016.39
2018-10-05T07:35:43.676Z,1016.39
2018-10-05T07:36:42.190Z,1016.43
2018-10-05T07:38:38.125Z,1016.35
2018-10-05T07:39:38.101Z,1016.34
2018-10-05T07:41:34.550Z,1016.30
2018-10-05T07:42:34.003Z,1016.32
2018-10-05T07:44:29.970Z,1016.31
2018-10-05T07:45:29.922Z,1016.36
2018-10-05T07:47:25.904Z,1016.34
2018-10-05T07:48:25.849Z,1016.33
2018-10-05T07:50:23.313Z,1016.32
2018-10-05T07:51:21.790Z,1016.28
2018-10-05T07:53:17.730Z,1016.32
2018-10-05T07:54:17.708Z,1016.32
2018-10-05T07:56:14.176Z,1016.35
2018-10-05T07:57:13.652Z,1016.33
2018-10-05T07:59:09.616Z,1016.35
2018-10-05T08:00:09.577Z,1016.35
2018-10-05T08:02:06.042Z,1016.36
2018-10-05T08:03:05.478Z,1016.31
2018-10-05T08:05:01.478Z,1016.26
2018-10-05T08:06:01.450Z,1016.30
2018-10-05T08:07:58.370Z,1016.27
2018-10-05T08:08:57.339Z,1016.22
2018-10-05T08:10:53.801Z,1016.26
2018-10-05T08:11:53.263Z,1016.29
2018-10-05T08:13:49.259Z,1016.29
2018-10-05T08:14:49.202Z,1016.32
2018-10-05T08:16:46.156Z,1016.33
2018-10-05T08:17:45.237Z,1016.33
2018-10-05T08:19:41.184Z,1016.31
2018-10-05T08:20:41.189Z,1016.29
2018-10-05T08:22:38.634Z,1016.32
2018-10-05T08:23:37.122Z,1016.31
2018-10-05T08:25:32.074Z,1016.34
2018-10-05T08:26:32.065Z,1016.26
2018-10-05T08:28:27.518Z,1016.27
2018-10-05T08:29:27.497Z,1016.24
2018-10-05T08:31:23.453Z,1016.23
2018-10-05T08:32:23.411Z,1016.25
2018-10-05T08:34:19.469Z,1016.25
2018-10-05T08:35:19.350Z,1016.18
2018-10-05T08:37:16.314Z,1016.18
2018-10-05T08:38:15.280Z,1016.20
2018-10-05T08:40:09.775Z,1016.20
2018-10-05T08:41:09.730Z,1016.16
2018-10-05T08:43:04.714Z,1016.15
2018-10-05T08:44:04.172Z,1016.11
2018-10-05T08:46:00.175Z,1016.12
2018-10-05T08:47:00.091Z,1016.10
2018-10-05T08:48:57.037Z,1016.08
2018-10-05T08:49:56.067Z,1016.07
2018-10-05T08:51:52.051Z,1016.02
2018-10-05T08:52:51.951Z,1016.05
2018-10-05T08:54:47.912Z,1015.99
2018-10-05T08:55:47.895Z,1015.99
2018-10-05T08:57:43.859Z,1015.90
2018-10-05T08:58:43.835Z,1015.93
2018-10-05T09:00:38.430Z,1015.82
2018-10-05T09:01:38.277Z,1015.83
2018-10-05T09:03:33.238Z,1015.83
2018-10-05T09:04:33.236Z,1015.86
2018-10-05T09:06:27.690Z,1015.82
2018-10-05T09:07:27.174Z,1015.86
2018-10-05T09:09:23.644Z,1015.79
2018-10-05T09:10:23.111Z,1015.83
2018-10-05T09:12:19.607Z,1015.81
2018-10-05T09:13:19.022Z,1015.77
2018-10-05T09:15:15.048Z,1015.69
2018-10-05T09:16:15.053Z,1015.64
2018-10-05T09:18:09.554Z,1015.65
2018-10-05T09:19:09.521Z,1015.62
2018-10-05T09:21:05.474Z,1015.61
2018-10-05T09:22:06.961Z,1015.57
2018-10-05T09:24:01.974Z,1015.56
2018-10-05T09:25:02.395Z,1015.57
2018-10-05T09:26:59.358Z,1015.53
2018-10-05T09:27:57.394Z,1015.49
2018-10-05T09:29:54.340Z,1015.44
2018-10-05T09:30:54.350Z,1015.46
2018-10-05T09:32:48.806Z,1015.44
2018-10-05T09:33:47.787Z,1015.42
2018-10-05T09:35:42.230Z,1015.37
2018-10-05T09:36:42.224Z,1015.38
2018-10-05T09:38:38.214Z,1015.30
2018-10-05T09:39:38.162Z,1015.28
2018-10-05T09:41:34.618Z,1015.27
2018-10-05T09:42:34.074Z,1015.29
2018-10-05T09:44:30.544Z,1015.22
2018-10-05T09:45:30.528Z,1015.19
2018-10-05T09:47:25.965Z,1015.19
2018-10-05T09:48:25.955Z,1015.16
2018-10-05T09:50:22.442Z,1015.11
2018-10-05T09:51:21.888Z,1015.19
2018-10-05T09:53:16.381Z,1015.09
2018-10-05T09:54:16.354Z,1015.08
2018-10-05T09:56:12.832Z,1015.08
2018-10-05T09:57:12.302Z,1015.08
2018-10-05T09:59:08.271Z,1015.07
2018-10-05T10:00:08.817Z,1015.04
2018-10-05T10:02:04.204Z,1014.96
2018-10-05T10:03:04.154Z,1014.91
2018-10-05T10:05:00.139Z,1014.92
2018-10-05T10:06:00.086Z,1014.88
2018-10-05T10:07:54.619Z,1014.85
2018-10-05T10:08:54.542Z,1014.86
2018-10-05T10:10:50.983Z,1014.87
2018-10-05T10:11:50.994Z,1014.84
2018-10-05T10:13:46.505Z,1014.77
2018-10-05T10:14:46.424Z,1014.81
2018-10-05T10:16:42.889Z,1014.75
2018-10-05T10:17:42.389Z,1014.77
2018-10-05T10:19:38.364Z,1014.77
2018-10-05T10:20:38.848Z,1014.73
2018-10-05T10:22:34.310Z,1014.72
2018-10-05T10:23:34.273Z,1014.66
2018-10-05T10:25:28.738Z,1014.62
2018-10-05T10:26:28.716Z,1014.67
2018-10-05T10:28:25.246Z,1014.63
2018-10-05T10:29:24.752Z,1014.57
2018-10-05T10:31:20.144Z,1014.58
2018-10-05T10:32:20.130Z,1014.55
2018-10-05T10:34:15.102Z,1014.55
2018-10-05T10:35:15.079Z,1014.52
2018-10-05T10:37:12.041Z,1014.47
2018-10-05T10:38:11.041Z,1014.38
2018-10-05T10:40:07.992Z,1014.34
2018-10-05T10:41:07.014Z,1014.35
2018-10-05T10:43:02.950Z,1014.29
2018-10-05T10:44:03.466Z,1014.23
2018-10-05T10:45:58.945Z,1014.19
2018-10-05T10:46:58.907Z,1014.21
2018-10-05T10:48:55.860Z,1014.18
2018-10-05T10:49:54.855Z,1014.16
2018-10-05T10:51:49.322Z,1014.13
2018-10-05T10:52:49.293Z,1014.12
2018-10-05T10:54:45.269Z,1014.04
2018-10-05T10:55:45.245Z,1014.05
2018-10-05T10:57:41.206Z,1014.02
2018-10-05T10:58:42.707Z,1014.00
2018-10-05T11:00:37.172Z,1014.03
2018-10-05T11:01:37.150Z,1013.97
2018-10-05T11:03:33.603Z,1013.96
2018-10-05T11:04:33.135Z,1013.95
2018-10-05T11:06:29.545Z,1013.91
2018-10-05T11:07:29.055Z,1013.89
2018-10-05T11:09:26.985Z,1013.81
2018-10-05T11:10:24.995Z,1013.81
2018-10-05T11:12:21.945Z,1013.80
2018-10-05T11:13:21.917Z,1013.77
2018-10-05T11:15:17.900Z,1013.72
2018-10-05T11:16:17.885Z,1013.70
2018-10-05T11:18:14.839Z,1013.64
2018-10-05T11:19:13.852Z,1013.65
2018-10-05T11:21:09.812Z,1013.62
2018-10-05T11:22:09.781Z,1013.61
2018-10-05T11:24:05.715Z,1013.59
2018-10-05T11:25:05.737Z,1013.56
2018-10-05T11:27:01.711Z,1013.54
2018-10-05T11:28:01.701Z,1013.53
2018-10-05T11:29:57.645Z,1013.48
2018-10-05T11:30:57.640Z,1013.48
2018-10-05T11:32:55.324Z,1013.47
2018-10-05T11:33:53.758Z,1013.44
2018-10-05T11:36:02.145Z,1013.41
2018-10-05T11:37:02.263Z,1013.40
2018-10-05T11:38:56.650Z,1013.38
2018-10-05T11:39:56.626Z,1013.33
2018-10-05T11:41:54.089Z,1013.39
2018-10-05T11:42:52.548Z,1013.36
2018-10-05T11:44:48.476Z,1013.31
2018-10-05T11:45:48.485Z,1013.26
2018-10-05T11:47:44.495Z,1013.25
2018-10-05T11:48:44.455Z,1013.26
2018-10-05T11:50:40.385Z,1013.19
2018-10-05T11:51:40.420Z,1013.13
2018-10-05T11:53:37.847Z,1013.18
2018-10-05T11:54:36.355Z,1013.15
2018-10-05T11:56:32.280Z,1013.12
2018-10-05T11:57:32.310Z,1013.10
2018-10-05T11:59:28.267Z,1013.11
2018-10-05T12:00:28.278Z,1013.07
2018-10-05T12:02:24.740Z,1013.06
2018-10-05T12:03:25.136Z,1013.03
2018-10-05T12:05:20.156Z,1012.97
2018-10-05T12:06:20.257Z,1013.01
2018-10-05T12:08:16.084Z,1013.01
2018-10-05T12:09:16.055Z,1013.02
2018-10-05T12:11:12.046Z,1012.98
2018-10-05T12:12:12.005Z,1012.92
2018-10-05T12:14:06.970Z,1012.90
2018-10-05T12:15:06.482Z,1012.91
2018-10-05T12:17:02.399Z,1012.87
2018-10-05T12:18:02.404Z,1012.89
2018-10-05T12:19:55.882Z,1012.84
2018-10-05T12:20:56.373Z,1012.88
2018-10-05T12:22:52.051Z,1012.84
2018-10-05T12:23:50.311Z,1012.81
2018-10-05T12:25:44.793Z,1012.71
2018-10-05T12:26:44.876Z,1012.73
2018-10-05T12:28:41.235Z,1012.67
2018-10-05T12:29:40.715Z,1012.64
2018-10-05T12:31:35.123Z,1012.64
2018-10-05T12:32:35.670Z,1012.60
2018-10-05T12:34:31.121Z,1012.61
2018-10-05T12:35:31.124Z,1012.59
2018-10-05T12:37:25.550Z,1012.54
2018-10-05T12:38:25.567Z,1012.55
2018-10-05T12:40:20.077Z,1012.53
2018-10-05T12:41:20.040Z,1012.53
2018-10-05T12:43:16.006Z,1012.49
2018-10-05T12:44:15.974Z,1012.50
2018-10-05T12:46:11.458Z,1012.46
2018-10-05T12:47:11.069Z,1012.42
2018-10-05T12:49:07.530Z,1012.44
2018-10-05T12:50:07.048Z,1012.46
2018-10-05T12:52:03.483Z,1012.49
2018-10-05T12:53:02.952Z,1012.42
2018-10-05T12:55:01.411Z,1012.45
2018-10-05T12:56:01.064Z,1012.36
2018-10-05T12:57:57.025Z,1012.34
2018-10-05T12:58:57.053Z,1012.32
2018-10-05T13:00:53.021Z,1012.32
2018-10-05T13:01:54.018Z,1012.28
2018-10-05T13:03:49.983Z,1012.23
2018-10-05T13:04:49.002Z,1012.24
2018-10-05T13:06:43.958Z,1012.24
2018-10-05T13:07:43.420Z,1012.22
2018-10-05T13:09:37.386Z,1012.23
2018-10-05T13:10:36.863Z,1012.17
2018-10-05T13:12:32.837Z,1012.18
2018-10-05T13:13:33.146Z,1012.14
2018-10-05T13:15:28.850Z,1012.14
2018-10-05T13:16:29.299Z,1012.09
2018-10-05T13:18:24.720Z,1012.10
2018-10-05T13:19:25.271Z,1012.02
2018-10-05T13:21:20.735Z,1012.03
2018-10-05T13:22:20.745Z,1012.01
2018-10-05T13:24:16.690Z,1012.00
2018-10-05T13:25:16.702Z,1012.00
2018-10-05T13:27:13.141Z,1011.91
2018-10-05T13:28:12.128Z,1011.92
2018-10-05T13:30:09.720Z,1011.90
2018-10-05T13:31:09.688Z,1011.88
2018-10-05T13:33:05.150Z,1011.88
2018-10-05T13:34:05.198Z,1011.91
2018-10-05T13:35:59.598Z,1011.88
2018-10-05T13:36:59.582Z,1011.86
2018-10-05T13:38:54.032Z,1011.81
2018-10-05T13:39:54.040Z,1011.79
2018-10-05T13:41:48.562Z,1011.77
2018-10-05T13:42:48.447Z,1011.80
2018-10-05T13:44:55.862Z,1011.76
2018-10-05T13:45:56.558Z,1011.68
2018-10-05T13:48:05.319Z,1011.64
2018-10-05T13:49:05.305Z,1011.60
2018-10-05T13:51:00.233Z,1011.60
2018-10-05T13:51:59.706Z,1011.58
2018-10-05T13:53:56.680Z,1011.55
2018-10-05T13:54:55.712Z,1011.54
2018-10-05T13:56:50.159Z,1011.54
2018-10-05T13:57:50.154Z,1011.54
2018-10-05T13:59:43.587Z,1011.52
2018-10-05T14:00:43.611Z,1011.52
2018-10-05T14:02:38.119Z,1011.48
2018-10-05T14:03:38.051Z,1011.44
2018-10-05T14:05:34.524Z,1011.42
2018-10-05T14:06:34.010Z,1011.41
2018-10-05T14:08:28.439Z,1011.43
2018-10-05T14:09:28.957Z,1011.39
2018-10-05T14:11:22.872Z,1011.41
2018-10-05T14:12:22.879Z,1011.41
2018-10-05T14:14:19.515Z,1011.38
2018-10-05T14:15:18.846Z,1011.36
2018-10-05T14:17:15.807Z,1011.32
2018-10-05T14:18:14.873Z,1011.34
2018-10-05T14:20:09.806Z,1011.31
2018-10-05T14:21:09.306Z,1011.26
2018-10-05T14:23:02.791Z,1011.22
2018-10-05T14:24:02.749Z,1011.17
2018-10-05T14:25:57.227Z,1011.11
2018-10-05T14:26:57.243Z,1011.09
2018-10-05T14:28:53.175Z,1011.10
2018-10-05T14:29:53.175Z,1011.08
2018-10-05T14:31:47.580Z,1011.02
2018-10-05T14:32:47.628Z,1011.02
2018-10-05T14:34:42.063Z,1011.02
2018-10-05T14:35:42.555Z,1010.98
2018-10-05T14:37:37.025Z,1010.98
2018-10-05T14:38:37.929Z,1010.98
2018-10-05T14:40:33.972Z,1010.97
2018-10-05T14:41:32.573Z,1010.92
2018-10-05T14:43:29.012Z,1010.89
2018-10-05T14:44:29.495Z,1010.86
2018-10-05T14:46:24.519Z,1010.82
2018-10-05T14:47:24.484Z,1010.81
2018-10-05T14:49:19.969Z,1010.76
2018-10-05T14:50:19.450Z,1010.78
2018-10-05T14:52:17.934Z,1010.75
2018-10-05T14:53:17.220Z,1010.73
2018-10-05T14:55:11.505Z,1010.71
2018-10-05T14:57:28.077Z,1010.72
2018-10-05T14:58:27.997Z,1010.67
2018-10-05T15:00:23.954Z,1010.65
2018-10-05T15:01:24.963Z,1010.61
2018-10-05T15:03:19.921Z,1010.58
2018-10-05T15:04:19.904Z,1010.59
2018-10-05T15:06:16.375Z,1010.58
2018-10-05T15:07:15.989Z,1010.58
2018-10-05T15:09:11.841Z,1010.53
2018-10-05T15:10:11.821Z,1010.60
2018-10-05T15:12:05.488Z,1010.57
2018-10-05T15:13:05.545Z,1010.56
2018-10-05T15:15:02.951Z,1010.54
2018-10-05T15:16:01.939Z,1010.56
2018-10-05T15:17:54.913Z,1010.52
2018-10-05T15:18:54.923Z,1010.51
2018-10-05T15:20:51.879Z,1010.47
2018-10-05T15:21:50.870Z,1010.47
2018-10-05T15:23:44.303Z,1010.44
2018-10-05T15:24:44.342Z,1010.45
2018-10-05T15:26:40.784Z,1010.42
2018-10-05T15:27:40.287Z,1010.41
2018-10-05T15:29:38.774Z,1010.40
2018-10-05T15:31:52.258Z,1010.35
2018-10-05T15:32:52.247Z,1010.34
2018-10-05T15:34:47.196Z,1010.31
2018-10-05T15:35:47.683Z,1010.30
2018-10-05T15:37:41.148Z,1010.21
2018-10-05T15:38:40.173Z,1010.22
2018-10-05T15:40:35.098Z,1010.19
2018-10-05T15:41:34.759Z,1010.16
2018-10-05T15:43:31.593Z,1010.18
2018-10-05T15:44:31.560Z,1010.20
2018-10-05T15:46:27.118Z,1010.25
2018-10-05T15:47:27.602Z,1010.22
2018-10-05T15:49:34.682Z,1010.24
2018-10-05T15:50:34.349Z,1010.19
2018-10-05T15:52:30.318Z,1010.20
2018-10-05T15:53:30.309Z,1010.24
2018-10-05T15:55:26.245Z,1010.26
2018-10-05T15:56:27.245Z,1010.24
2018-10-05T15:58:21.558Z,1010.23
2018-10-05T15:59:21.566Z,1010.18
2018-10-05T16:01:16.015Z,1010.26
2018-10-05T16:02:17.019Z,1010.22
2018-10-05T16:04:11.990Z,1010.22
2018-10-05T16:05:12.564Z,1010.23
2018-10-05T16:07:06.463Z,1010.27
2018-10-05T16:08:06.443Z,1010.27
2018-10-05T16:10:02.429Z,1010.30
2018-10-05T16:11:03.422Z,1010.28
2018-10-05T16:12:57.464Z,1010.29
2018-10-05T16:13:56.871Z,1010.30
2018-10-05T16:15:52.922Z,1010.32
2018-10-05T16:16:53.847Z,1010.29
2018-10-05T16:18:49.401Z,1010.28
2018-10-05T16:19:48.942Z,1010.33
2018-10-05T16:21:44.897Z,1010.30
2018-10-05T16:22:44.849Z,1010.28
2018-10-05T16:24:39.373Z,1010.31
2018-10-05T16:25:39.854Z,1010.29
2018-10-05T16:27:34.257Z,1010.28
2018-10-05T16:28:33.755Z,1010.28
2018-10-05T16:30:29.713Z,1010.27
2018-10-05T16:31:30.764Z,1010.29
2018-10-05T16:33:25.658Z,1010.28
2018-10-05T16:34:25.662Z,1010.26
2018-10-05T16:36:22.664Z,1010.27
2018-10-05T16:37:21.642Z,1010.26
2018-10-05T16:39:16.078Z,1010.19
2018-10-05T16:40:16.589Z,1010.20
2018-10-05T16:42:11.074Z,1010.18
2018-10-05T16:43:11.030Z,1010.18
2018-10-05T16:45:07.477Z,1010.17
2018-10-05T16:46:06.741Z,1010.18
2018-10-05T16:48:03.702Z,1010.13
2018-10-05T16:49:02.675Z,1010.13
2018-10-05T16:50:57.113Z,1010.10
2018-10-05T16:51:57.117Z,1010.10
2018-10-05T16:53:53.592Z,1010.12
2018-10-05T16:54:53.085Z,1010.12
2018-10-05T16:56:50.064Z,1010.09
2018-10-05T16:57:49.386Z,1010.07
2018-10-05T16:59:45.364Z,1010.10
2018-10-05T17:00:45.335Z,1010.06
2018-10-05T17:02:41.818Z,1010.07
2018-10-05T17:03:41.335Z,1010.04
2018-10-05T17:05:38.739Z,1010.07
2018-10-05T17:06:37.271Z,1010.11
2018-10-05T17:08:32.203Z,1010.08
2018-10-05T17:09:32.213Z,1010.11
2018-10-05T17:11:27.686Z,1010.13
2018-10-05T17:12:28.159Z,1010.12
2018-10-05T17:14:23.565Z,1010.11
2018-10-05T17:15:23.596Z,1010.11
2018-10-05T17:17:19.616Z,1010.13
2018-10-05T17:18:19.527Z,1010.15
2018-10-05T17:20:15.508Z,1010.12
2018-10-05T17:21:15.473Z,1010.11
2018-10-05T17:23:11.938Z,1010.11
2018-10-05T17:24:11.443Z,1010.13
2018-10-05T17:26:07.376Z,1010.16
2018-10-05T17:27:07.380Z,1010.14
2018-10-05T17:29:03.856Z,1010.14
2018-10-05T17:30:03.340Z,1010.16
2018-10-05T17:32:00.284Z,1010.16
2018-10-05T17:32:59.796Z,1010.21
2018-10-05T17:34:55.289Z,1010.21
2018-10-05T17:35:55.230Z,1010.17
2018-10-05T17:37:51.191Z,1010.23
2018-10-05T17:38:51.685Z,1010.23
2018-10-05T17:40:46.136Z,1010.21
2018-10-05T17:41:45.640Z,1010.18